Time;durP1;ratioP1;P1;durP2;ratioP2;P2;SDS_P1;SDS_P2;PMS_P1;PMS_P2;Temp;Humidity;BMP_temperature;BMP_pressure;BME280_temperature;BME280_humidity;BME280_pressure;Samples;Min_cycle;Max_cycle;Signal;HPM_P1;HPM_P2
2023/03/29 00:00:29;;;;;;;6.03;3.23;;;;;;;3.53;100.00;102085.31;2081830;28;20416;-61
2023/03/29 00:01:29;;;;;;;7.03;3.80;;;;;;;3.54;100.00;102093.19;2080371;28;20228;-61
2023/03/29 00:02:30;;;;;;;7.63;3.30;;;;;;;3.49;100.00;102085.22;2081252;28;20530;-61
2023/03/29 00:03:32;;;;;;;7.37;3.47;;;;;;;3.25;100.00;102066.16;2081924;28;20205;-61
2023/03/29 00:04:33;;;;;;;8.65;3.78;;;;;;;3.04;100.00;102015.44;2081134;28;20196;-61
2023/03/29 00:05:34;;;;;;;5.70;3.87;;;;;;;3.29;100.00;102063.50;2074584;28;20291;-61
2023/03/29 00:06:35;;;;;;;7.63;3.50;;;;;;;3.40;100.00;102094.75;2078914;28;20391;-61
2023/03/29 00:07:36;;;;;;;6.57;3.77;;;;;;;3.41;100.00;102104.53;2081640;28;20264;-61
2023/03/29 00:08:39;;;;;;;6.87;4.07;;;;;;;3.44;100.00;102090.94;2081582;28;20251;-61
2023/03/29 00:09:40;;;;;;;7.25;3.65;;;;;;;3.45;100.00;102099.97;2081376;28;20481;-61
2023/03/29 00:10:41;;;;;;;10.43;3.80;;;;;;;3.41;100.00;102096.31;2081064;28;20180;-61
2023/03/29 00:11:41;;;;;;;9.37;3.73;;;;;;;3.39;100.00;102095.91;2088335;28;20567;-60
2023/03/29 00:12:42;;;;;;;5.87;3.50;;;;;;;3.38;100.00;102094.31;2081679;28;20269;-60
2023/03/29 00:13:43;;;;;;;7.13;3.43;;;;;;;3.41;100.00;102102.63;2081111;28;20272;-60
2023/03/29 00:14:43;;;;;;;4.33;3.40;;;;;;;3.41;100.00;102096.31;2081536;28;20193;-66
2023/03/29 00:15:43;;;;;;;6.30;3.77;;;;;;;3.44;100.00;102101.91;2080667;28;20299;-60
2023/03/29 00:16:45;;;;;;;6.07;3.40;;;;;;;3.46;100.00;102094.16;2077715;28;20209;-61
2023/03/29 00:17:45;;;;;;;6.47;3.50;;;;;;;3.46;100.00;102098.81;2075469;28;20342;-61
2023/03/29 00:18:46;;;;;;;7.60;3.77;;;;;;;3.39;100.00;102093.94;2082960;28;20233;-61
2023/03/29 00:19:47;;;;;;;5.80;3.43;;;;;;;3.39;100.00;102099.41;2073531;28;20236;-60
2023/03/29 00:20:58;;;;;;;6.75;4.00;;;;;;;3.36;100.00;102091.91;2081629;28;20189;-60
2023/03/29 00:21:58;;;;;;;4.80;3.55;;;;;;;3.35;100.00;102098.53;2081447;28;20181;-61
2023/03/29 00:22:59;;;;;;;7.57;3.67;;;;;;;3.37;100.00;102098.97;2080636;28;20200;-61
2023/03/29 00:24:00;;;;;;;4.37;3.50;;;;;;;3.36;100.00;102097.38;2087420;28;20288;-60
2023/03/29 00:25:00;;;;;;;6.50;3.90;;;;;;;3.34;100.00;102096.91;2083989;28;20650;-61
2023/03/29 00:26:01;;;;;;;6.57;3.60;;;;;;;3.39;100.00;102101.38;2080787;28;20202;-60
2023/03/29 00:27:01;;;;;;;4.87;3.63;;;;;;;3.13;100.00;102079.09;2080436;28;20195;-61
2023/03/29 00:28:02;;;;;;;9.73;3.60;;;;;;;3.20;100.00;102101.19;2081127;28;20188;-61
2023/03/29 00:29:02;;;;;;;5.20;4.00;;;;;;;2.79;100.00;102035.81;2080148;28;20192;-61
2023/03/29 00:30:05;;;;;;;6.83;3.67;;;;;;;3.15;100.00;102095.97;2081418;28;20173;-61
2023/03/29 00:31:08;;;;;;;4.88;3.60;;;;;;;3.13;100.00;102096.31;2072830;28;20205;-61
2023/03/29 00:32:09;;;;;;;5.63;3.70;;;;;;;2.86;100.00;102096.25;2081440;28;20376;-61
2023/03/29 00:33:10;;;;;;;8.37;3.97;;;;;;;3.05;100.00;102093.69;2080983;28;20181;-60
2023/03/29 00:34:10;;;;;;;5.30;3.90;;;;;;;2.92;100.00;102098.41;2081454;28;20199;-61
2023/03/29 00:35:11;;;;;;;6.70;3.60;;;;;;;2.89;100.00;102077.22;2081058;28;20173;-61
2023/03/29 00:36:11;;;;;;;5.77;3.60;;;;;;;2.98;100.00;102101.72;2080517;28;20320;-61
2023/03/29 00:37:13;;;;;;;10.13;4.00;;;;;;;2.96;100.00;102101.25;2081339;28;20561;-61
2023/03/29 00:38:15;;;;;;;5.75;3.60;;;;;;;2.94;100.00;102100.81;2080801;28;20180;-60
2023/03/29 00:39:17;;;;;;;5.40;3.80;;;;;;;2.82;100.00;102089.88;2081512;28;20188;-60
2023/03/29 00:40:17;;;;;;;4.82;3.42;;;;;;;2.51;100.00;102038.47;2081027;28;20248;-60
2023/03/29 00:41:17;;;;;;;5.90;3.60;;;;;;;2.04;100.00;101965.44;2079981;28;20273;-61
2023/03/29 00:42:18;;;;;;;6.57;3.67;;;;;;;2.83;100.00;102089.53;2081341;28;20190;-61
2023/03/29 00:43:19;;;;;;;8.00;3.90;;;;;;;2.82;100.00;102098.88;2080391;28;20232;-61
2023/03/29 00:44:50;;;;;;;7.70;3.67;;;;;;;2.84;100.00;102098.53;2081139;28;20224;-61
2023/03/29 00:45:51;;;;;;;4.10;3.28;;;;;;;2.36;100.00;102020.03;2080477;28;20235;-61
2023/03/29 00:46:52;;;;;;;6.37;3.87;;;;;;;2.83;100.00;102084.03;2081145;28;20197;-60
2023/03/29 00:48:01;;;;;;;4.60;3.47;;;;;;;2.87;100.00;102095.13;2076712;28;20185;-60
2023/03/29 00:49:07;;;;;;;7.65;3.88;;;;;;;2.88;100.00;102102.97;2078210;28;20632;-60
2023/03/29 00:50:31;;;;;;;6.20;3.63;;;;;;;2.84;100.00;102104.81;2080712;28;20220;-61
2023/03/29 00:51:35;;;;;;;7.75;3.72;;;;;;;2.78;100.00;102102.66;2080338;28;20196;-61
2023/03/29 00:52:38;;;;;;;5.03;3.60;;;;;;;2.74;100.00;102101.75;2080840;28;20189;-60
2023/03/29 00:53:47;;;;;;;9.60;3.72;;;;;;;2.42;100.00;102043.28;2080893;28;20197;-61
2023/03/29 00:54:53;;;;;;;5.78;3.80;;;;;;;2.77;100.00;102101.06;2076448;28;20742;-61
2023/03/29 00:56:00;;;;;;;9.85;3.95;;;;;;;2.77;100.00;102101.06;2076860;28;20223;-61
2023/03/29 00:57:01;;;;;;;6.43;3.80;;;;;;;2.73;100.00;102100.16;2081337;28;20194;-60
2023/03/29 00:58:07;;;;;;;5.78;4.03;;;;;;;2.23;100.00;102017.63;2081174;28;20275;-61
2023/03/29 00:59:15;;;;;;;6.75;4.40;;;;;;;2.75;100.00;102101.41;2080667;28;20212;-60
2023/03/29 01:00:19;;;;;;;6.25;4.15;;;;;;;2.77;100.00;102104.59;2081155;28;20545;-61
2023/03/29 01:01:45;;;;;;;5.13;4.18;;;;;;;2.78;100.00;102117.13;2078473;28;20180;-60
2023/03/29 01:02:52;;;;;;;6.28;3.88;;;;;;;2.73;100.00;102111.09;2076522;28;20194;-61
2023/03/29 01:04:16;;;;;;;5.50;3.83;;;;;;;2.70;100.00;102111.78;2077171;28;20267;-61
2023/03/29 01:05:24;;;;;;;6.90;4.32;;;;;;;2.67;100.00;102105.06;2083813;28;20196;-60
2023/03/29 01:06:28;;;;;;;6.30;4.10;;;;;;;2.64;100.00;102103.03;2077013;28;20199;-60
2023/03/29 01:07:35;;;;;;;7.10;4.50;;;;;;;2.61;100.00;102113.84;2077472;28;20201;-60
2023/03/29 01:08:42;;;;;;;5.32;4.13;;;;;;;2.62;100.00;102118.19;2081178;28;20202;-61
2023/03/29 01:10:08;;;;;;;6.65;4.47;;;;;;;2.56;100.00;102120.34;2081312;28;20246;-60
2023/03/29 01:11:21;;;;;;;5.35;4.18;;;;;;;2.55;100.00;102124.22;2072900;28;20743;-60
2023/03/29 01:12:28;;;;;;;8.02;4.18;;;;;;;2.07;100.00;102046.81;2079962;28;20186;-61
2023/03/29 01:13:45;;;;;;;8.02;4.43;;;;;;;2.55;100.00;102113.28;2080658;28;20189;-61
2023/03/29 01:15:01;;;;;;;6.22;4.22;;;;;;;2.54;100.00;102122.63;2073253;28;20178;-60
2023/03/29 01:16:02;;;;;;;7.53;4.57;;;;;;;2.40;100.00;102105.75;2072506;28;20189;-61
2023/03/29 01:17:03;;;;;;;9.18;4.55;;;;;;;2.61;100.00;102125.59;2078288;28;20240;-60
2023/03/29 01:18:05;;;;;;;6.90;5.37;;;;;;;2.61;100.00;102124.78;2080707;28;20208;-60
2023/03/29 01:19:09;;;;;;;6.43;5.40;;;;;;;2.58;100.00;102120.78;2081127;28;20221;-60
2023/03/29 01:20:16;;;;;;;14.32;5.50;;;;;;;2.58;100.00;102122.75;2075527;28;20290;-61
2023/03/29 01:21:26;;;;;;;8.63;4.60;;;;;;;2.55;100.00;102124.22;2076390;28;20197;-61
2023/03/29 01:22:45;;;;;;;6.40;4.80;;;;;;;2.53;100.00;102129.25;2080336;28;20198;-61
2023/03/29 01:24:05;;;;;;;7.88;4.68;;;;;;;2.39;100.00;102095.16;2082097;28;20501;-60
2023/03/29 01:25:21;;;;;;;7.18;5.07;;;;;;;2.48;100.00;102126.75;2073195;28;20643;-60
2023/03/29 01:26:54;;;;;;;6.97;4.95;;;;;;;2.50;100.00;102134.59;2079832;28;20175;-61
2023/03/29 01:27:54;;;;;;;7.85;4.82;;;;;;;2.55;100.00;102117.94;2063778;28;20602;-61
2023/03/29 01:29:11;;;;;;;6.20;4.93;;;;;;;2.55;100.00;102128.88;2080932;28;20153;-61
2023/03/29 01:30:18;;;;;;;8.98;5.50;;;;;;;2.60;100.00;102125.94;2075052;28;20207;-61
2023/03/29 01:31:26;;;;;;;8.77;5.20;;;;;;;2.59;100.00;102127.06;2077712;28;20223;-61
2023/03/29 01:32:36;;;;;;;10.18;5.68;;;;;;;1.88;100.00;102021.94;2074821;28;20162;-61
2023/03/29 01:33:47;;;;;;;12.40;5.90;;;;;;;2.60;100.00;102139.59;2078622;28;20153;-61
2023/03/29 01:34:53;;;;;;;7.88;5.10;;;;;;;2.63;100.00;102114.31;2074092;28;20464;-60
2023/03/29 01:36:01;;;;;;;7.03;5.10;;;;;;;2.16;100.00;102047.50;2080232;28;20613;-61
2023/03/29 01:37:14;;;;;;;7.43;5.20;;;;;;;2.62;100.00;102113.50;2080966;28;20244;-61
2023/03/29 01:38:20;;;;;;;9.13;4.95;;;;;;;2.60;100.00;102118.53;2080856;28;20207;-60
2023/03/29 01:39:20;;;;;;;9.65;4.97;;;;;;;2.61;100.00;102111.09;2080301;28;20204;-61
2023/03/29 01:40:22;;;;;;;6.33;4.60;;;;;;;2.04;100.00;102047.47;2080826;28;20184;-60
2023/03/29 01:41:33;;;;;;;6.93;4.88;;;;;;;2.64;100.00;102122.19;2079673;28;20204;-60
2023/03/29 01:42:43;;;;;;;10.55;5.38;;;;;;;2.61;100.00;102117.38;2071536;28;20581;-61
2023/03/29 01:43:58;;;;;;;7.70;4.80;;;;;;;2.65;100.00;102117.47;2072659;28;20229;-61
2023/03/29 01:45:09;;;;;;;9.98;5.53;;;;;;;2.01;100.00;102018.09;2080885;28;20172;-60
2023/03/29 01:46:32;;;;;;;10.93;5.20;;;;;;;1.92;100.00;101996.34;2079992;28;20180;-61
2023/03/29 01:47:51;;;;;;;7.18;4.72;;;;;;;2.73;100.00;102120.09;2080839;28;20275;-60
2023/03/29 01:49:10;;;;;;;5.95;4.15;;;;;;;2.71;100.00;102125.13;2080646;28;20247;-60
2023/03/29 01:50:50;;;;;;;7.15;4.90;;;;;;;2.77;100.00;102120.22;2076243;28;20633;-61
2023/03/29 01:51:56;;;;;;;8.32;4.50;;;;;;;2.77;100.00;102117.50;2073182;28;20186;-61
2023/03/29 01:53:05;;;;;;;9.05;4.97;;;;;;;2.08;100.00;102027.34;2079761;28;20646;-61
2023/03/29 01:54:09;;;;;;;8.57;5.10;;;;;;;2.82;100.00;102125.47;2080738;28;20165;-60
2023/03/29 01:55:14;;;;;;;7.78;5.20;;;;;;;2.38;100.00;102047.03;2080508;28;20188;-61
2023/03/29 01:56:22;;;;;;;8.90;5.00;;;;;;;2.86;100.00;102118.97;2080718;28;20227;-61
2023/03/29 01:57:25;;;;;;;7.70;4.57;;;;;;;2.88;100.00;102124.88;2073608;28;20217;-61
2023/03/29 01:58:32;;;;;;;6.53;4.93;;;;;;;2.91;100.00;102117.91;2080478;28;20204;-61
2023/03/29 01:59:37;;;;;;;8.85;4.80;;;;;;;2.54;100.00;102076.13;2080718;28;20185;-60
2023/03/29 02:00:40;;;;;;;7.88;5.20;;;;;;;2.90;100.00;102121.81;2080553;28;20197;-61
2023/03/29 02:01:47;;;;;;;8.68;4.68;;;;;;;2.56;100.00;102059.34;2079689;28;20279;-61
2023/03/29 02:02:50;;;;;;;7.15;4.40;;;;;;;2.91;100.00;102113.25;2079544;28;20235;-61
2023/03/29 02:03:54;;;;;;;8.43;4.60;;;;;;;2.87;100.00;102120.56;2074647;28;20201;-61
2023/03/29 02:04:56;;;;;;;8.48;5.32;;;;;;;2.75;100.00;102090.47;2072814;28;20639;-60
2023/03/29 02:05:59;;;;;;;8.05;5.25;;;;;;;2.93;100.00;102121.13;2075390;28;20689;-61
2023/03/29 02:07:02;;;;;;;7.43;4.97;;;;;;;2.88;100.00;102111.19;2077473;28;20182;-61
2023/03/29 02:08:04;;;;;;;6.40;4.60;;;;;;;2.98;100.00;102120.88;2074162;28;20674;-60
2023/03/29 02:09:06;;;;;;;9.55;5.30;;;;;;;2.78;100.00;102106.19;2081581;28;20180;-60
2023/03/29 02:10:08;;;;;;;7.80;5.18;;;;;;;2.94;100.00;102125.47;2085470;28;20195;-61
2023/03/29 02:11:08;;;;;;;7.90;5.13;;;;;;;2.95;100.00;102125.13;2079462;28;20186;-61
2023/03/29 02:12:10;;;;;;;8.07;5.37;;;;;;;2.94;100.00;102119.97;2080567;28;20185;-61
2023/03/29 02:13:11;;;;;;;7.65;4.85;;;;;;;2.93;100.00;102126.59;2080075;28;20658;-61
2023/03/29 02:14:12;;;;;;;10.97;5.27;;;;;;;2.89;100.00;102125.69;2078569;28;20267;-61
2023/03/29 02:15:18;;;;;;;9.68;5.03;;;;;;;2.92;100.00;102120.31;2084886;28;20251;-60
2023/03/29 02:16:19;;;;;;;7.88;5.55;;;;;;;2.98;100.00;102124.41;2080206;28;20311;-61
2023/03/29 02:17:23;;;;;;;8.17;5.07;;;;;;;2.91;100.00;102137.88;2080604;28;20189;-61
2023/03/29 02:18:23;;;;;;;9.50;5.00;;;;;;;2.94;100.00;102134.47;2080437;28;20962;-61
2023/03/29 02:19:24;;;;;;;7.07;5.20;;;;;;;2.93;100.00;102130.13;2079126;28;20570;-61
2023/03/29 02:20:29;;;;;;;9.45;5.13;;;;;;;2.92;100.00;102133.22;2080169;28;20674;-60
2023/03/29 02:21:47;;;;;;;7.80;4.70;;;;;;;2.95;100.00;102132.53;2079357;28;20283;-60
2023/03/29 02:22:53;;;;;;;7.20;4.38;;;;;;;2.94;100.00;102131.75;2075643;28;20651;-61
2023/03/29 02:23:56;;;;;;;5.70;4.60;;;;;;;2.87;100.00;102126.03;2076098;28;20573;-61
2023/03/29 02:25:00;;;;;;;7.22;4.15;;;;;;;2.90;100.00;102121.81;2079994;28;20193;-60
2023/03/29 02:26:02;;;;;;;5.85;4.22;;;;;;;2.25;100.00;102029.84;2079695;28;20177;-60
2023/03/29 02:27:03;;;;;;;8.82;4.47;;;;;;;2.91;100.00;102135.16;2078915;28;20242;-61
2023/03/29 02:28:05;;;;;;;6.83;4.20;;;;;;;2.96;100.00;102136.84;2072923;28;20208;-60
2023/03/29 02:29:06;;;;;;;7.82;4.30;;;;;;;3.00;100.00;102130.34;2080166;28;20991;-60
2023/03/29 02:30:09;;;;;;;7.87;4.00;;;;;;;3.05;100.00;102135.59;2080129;28;20567;-61
2023/03/29 02:31:34;;;;;;;7.78;4.45;;;;;;;3.08;100.00;102154.06;2079599;28;20316;-60
2023/03/29 02:32:50;;;;;;;7.40;4.03;;;;;;;3.12;100.00;102141.28;2072301;28;20166;-61
2023/03/29 02:34:06;;;;;;;6.38;4.05;;;;;;;2.80;100.00;102083.94;2074085;28;20648;-60
2023/03/29 02:35:12;;;;;;;6.63;3.83;;;;;;;3.17;100.00;102138.31;2074020;28;20162;-60
2023/03/29 02:36:16;;;;;;;6.32;3.80;;;;;;;3.18;100.00;102148.13;2080081;28;20192;-61
2023/03/29 02:37:19;;;;;;;10.18;3.88;;;;;;;3.20;100.00;102140.38;2080373;28;20177;-61
2023/03/29 02:38:21;;;;;;;5.88;4.00;;;;;;;3.24;100.00;102148.69;2080194;28;20181;-61
2023/03/29 02:39:24;;;;;;;6.63;4.05;;;;;;;2.50;100.00;102025.13;2074410;28;20714;-60
2023/03/29 02:40:24;;;;;;;5.28;3.78;;;;;;;3.30;100.00;102150.03;2080291;28;20196;-60
2023/03/29 02:41:25;;;;;;;6.03;3.70;;;;;;;3.35;100.00;102147.88;2079423;28;20670;-61
2023/03/29 02:42:27;;;;;;;5.20;3.57;;;;;;;3.36;100.00;102145.91;2074658;28;20181;-60
2023/03/29 02:43:28;;;;;;;5.68;3.75;;;;;;;3.36;100.00;102143.16;2078280;28;20240;-60
2023/03/29 02:44:32;;;;;;;5.53;3.92;;;;;;;3.40;100.00;102142.13;2082972;28;20181;-61
2023/03/29 02:45:34;;;;;;;7.25;3.80;;;;;;;3.44;100.00;102137.53;2084010;28;20184;-61
2023/03/29 02:46:36;;;;;;;4.80;3.58;;;;;;;3.42;100.00;102139.84;2086651;28;20180;-60
2023/03/29 02:47:43;;;;;;;6.72;3.80;;;;;;;3.37;100.00;102133.78;2079489;28;20185;-61
2023/03/29 02:48:47;;;;;;;7.28;3.97;;;;;;;3.40;100.00;102147.63;2080251;28;20170;-60
2023/03/29 02:49:47;;;;;;;5.32;3.50;;;;;;;2.60;100.00;102009.06;2073209;28;20208;-61
2023/03/29 02:50:52;;;;;;;4.93;3.93;;;;;;;3.12;100.00;102088.44;2071340;28;20209;-60
2023/03/29 02:51:56;;;;;;;7.60;3.92;;;;;;;3.46;100.00;102142.66;2079140;28;20192;-60
2023/03/29 02:53:03;;;;;;;5.90;4.00;;;;;;;3.43;100.00;102149.66;2079667;28;20546;-60
2023/03/29 02:54:18;;;;;;;6.10;3.65;;;;;;;2.77;100.00;102038.09;2080252;28;20201;-60
2023/03/29 02:55:23;;;;;;;4.75;4.03;;;;;;;3.33;100.00;102124.69;2079595;28;20565;-61
2023/03/29 02:56:23;;;;;;;7.22;3.88;;;;;;;3.47;100.00;102147.81;2079917;28;20602;-61
2023/03/29 02:57:25;;;;;;;6.37;4.07;;;;;;;3.44;100.00;102142.22;2080196;28;20201;-61
2023/03/29 02:58:27;;;;;;;7.03;3.83;;;;;;;3.36;100.00;102146.72;2071449;28;20197;-60
2023/03/29 02:59:28;;;;;;;6.75;3.97;;;;;;;3.42;100.00;102144.50;2072763;28;20189;-60
2023/03/29 03:00:29;;;;;;;7.28;3.78;;;;;;;2.97;100.00;102083.69;2079960;28;20169;-60
2023/03/29 03:01:29;;;;;;;5.80;3.90;;;;;;;3.48;100.00;102151.34;2077351;28;20181;-61
2023/03/29 03:02:30;;;;;;;6.57;3.50;;;;;;;3.53;100.00;102146.41;2071778;28;20200;-60
2023/03/29 03:03:30;;;;;;;7.87;3.83;;;;;;;3.52;100.00;102150.31;2080585;28;20287;-61
2023/03/29 03:04:34;;;;;;;6.30;4.00;;;;;;;2.92;100.00;102042.88;2080413;28;20200;-60
2023/03/29 03:05:35;;;;;;;7.35;3.55;;;;;;;3.56;100.00;102148.47;2079173;28;20262;-61
2023/03/29 03:06:36;;;;;;;4.70;3.20;;;;;;;3.59;100.00;102150.50;2080316;28;20235;-60
2023/03/29 03:07:39;;;;;;;4.82;3.35;;;;;;;3.64;100.00;102150.25;2079880;28;20679;-61
2023/03/29 03:08:39;;;;;;;5.32;3.53;;;;;;;3.68;100.00;102148.41;2083847;28;20195;-61
2023/03/29 03:09:40;;;;;;;6.87;4.10;;;;;;;3.70;100.00;102157.06;2085686;28;20180;-61
2023/03/29 03:10:41;;;;;;;8.13;3.70;;;;;;;3.74;100.00;102147.00;2079587;28;20181;-61
2023/03/29 03:11:42;;;;;;;5.70;3.20;;;;;;;3.78;100.00;102149.84;2071164;28;20280;-60
2023/03/29 03:12:42;;;;;;;7.27;3.43;;;;;;;3.81;100.00;102154.66;2080311;28;20776;-60
2023/03/29 03:13:42;;;;;;;5.47;3.07;;;;;;;3.82;100.00;102148.81;2080084;28;20200;-61
2023/03/29 03:14:43;;;;;;;4.83;3.20;;;;;;;3.46;100.00;102104.31;2076520;28;20277;-61
2023/03/29 03:15:47;;;;;;;9.03;3.33;;;;;;;3.41;100.00;102110.84;2079156;28;20198;-60
2023/03/29 03:16:48;;;;;;;5.75;3.33;;;;;;;3.84;100.00;102152.00;2080137;28;20239;-61
2023/03/29 03:17:49;;;;;;;5.07;3.30;;;;;;;3.88;100.00;102141.13;2080111;28;20228;-60
2023/03/29 03:18:51;;;;;;;5.13;3.40;;;;;;;3.92;100.00;102147.50;2080225;28;20419;-60
2023/03/29 03:19:52;;;;;;;5.32;3.40;;;;;;;3.92;100.00;102151.06;2081909;28;20177;-61
2023/03/29 03:21:00;;;;;;;5.87;3.40;;;;;;;3.94;100.00;102153.44;2079221;28;20184;-61
2023/03/29 03:22:00;;;;;;;6.90;3.58;;;;;;;3.93;100.00;102152.66;2079820;28;20189;-60
2023/03/29 03:23:02;;;;;;;7.77;3.30;;;;;;;3.91;100.00;102148.66;2080099;28;20256;-60
2023/03/29 03:24:04;;;;;;;5.25;3.17;;;;;;;3.28;100.00;102040.00;2079498;28;20621;-60
2023/03/29 03:25:05;;;;;;;7.05;3.40;;;;;;;3.93;100.00;102141.66;2080183;28;20177;-61
2023/03/29 03:26:07;;;;;;;4.68;2.80;;;;;;;3.91;100.00;102154.91;2079524;28;20741;-60
2023/03/29 03:27:07;;;;;;;8.50;3.45;;;;;;;3.76;100.00;102132.97;2080228;28;20194;-61
2023/03/29 03:28:08;;;;;;;5.40;3.10;;;;;;;3.91;100.00;102157.66;2076761;28;20253;-60
2023/03/29 03:29:08;;;;;;;5.77;3.20;;;;;;;3.91;100.00;102154.16;2079307;28;20768;-61
2023/03/29 03:30:09;;;;;;;6.07;3.30;;;;;;;3.85;100.00;102153.59;2083486;28;20186;-61
2023/03/29 03:31:12;;;;;;;4.30;3.05;;;;;;;3.84;100.00;102164.94;2071388;28;20244;-60
2023/03/29 03:32:13;;;;;;;6.10;3.15;;;;;;;3.62;100.00;102116.91;2080580;28;20243;-60
2023/03/29 03:33:13;;;;;;;6.47;3.37;;;;;;;3.71;100.00;102153.22;2078953;28;20278;-60
2023/03/29 03:34:14;;;;;;;7.53;3.43;;;;;;;3.52;100.00;102130.31;2074261;28;20252;-61
2023/03/29 03:35:15;;;;;;;8.63;3.70;;;;;;;3.47;100.00;102147.81;2077547;28;20251;-60
2023/03/29 03:36:15;;;;;;;5.70;3.10;;;;;;;3.47;100.00;102152.47;2079789;28;20253;-60
2023/03/29 03:37:16;;;;;;;5.70;3.10;;;;;;;3.41;100.00;102156.63;2078749;28;20411;-61
2023/03/29 03:38:17;;;;;;;6.28;3.33;;;;;;;3.39;100.00;102156.19;2079880;28;20177;-61
2023/03/29 03:39:17;;;;;;;6.90;3.23;;;;;;;3.37;100.00;102155.72;2079912;28;20263;-61
2023/03/29 03:40:18;;;;;;;4.13;3.10;;;;;;;3.34;100.00;102157.19;2080493;28;20190;-61
2023/03/29 03:41:18;;;;;;;5.03;3.23;;;;;;;3.32;100.00;102175.94;2079443;28;20677;-60
2023/03/29 03:42:19;;;;;;;4.20;3.10;;;;;;;3.26;100.00;102147.19;2079387;28;20200;-61
2023/03/29 03:43:20;;;;;;;5.70;3.37;;;;;;;3.22;100.00;102154.50;2079282;28;20237;-61
2023/03/29 03:44:20;;;;;;;5.03;3.13;;;;;;;3.26;100.00;102162.81;2080284;28;20674;-61
2023/03/29 03:45:21;;;;;;;5.60;3.57;;;;;;;3.24;100.00;102143.19;2079504;28;20195;-60
2023/03/29 03:46:21;;;;;;;7.03;3.40;;;;;;;3.18;100.00;102153.59;2079394;28;20196;-61
2023/03/29 03:47:22;;;;;;;7.03;3.57;;;;;;;3.19;100.00;102157.13;2080144;28;20220;-61
2023/03/29 03:48:24;;;;;;;4.90;3.17;;;;;;;3.22;100.00;102159.97;2080551;28;20483;-61
2023/03/29 03:49:24;;;;;;;5.47;3.28;;;;;;;3.22;100.00;102157.25;2080219;28;20196;-61
2023/03/29 03:50:24;;;;;;;4.87;3.10;;;;;;;3.16;100.00;102158.63;2079931;28;20733;-60
2023/03/29 03:51:25;;;;;;;5.80;3.27;;;;;;;3.17;100.00;102159.41;2078871;28;20582;-60
2023/03/29 03:52:26;;;;;;;5.47;3.10;;;;;;;3.17;100.00;102160.22;2079758;28;20199;-60
2023/03/29 03:53:27;;;;;;;8.77;3.20;;;;;;;2.99;100.00;102134.22;2080118;28;20184;-60
2023/03/29 03:54:27;;;;;;;5.40;3.30;;;;;;;3.12;100.00;102165.13;2079768;28;20184;-60
2023/03/29 03:55:28;;;;;;;5.33;3.80;;;;;;;3.11;100.00;102158.06;2078999;28;20191;-61
2023/03/29 03:56:29;;;;;;;6.50;3.20;;;;;;;3.03;100.00;102151.56;2079909;28;20246;-64
2023/03/29 03:57:31;;;;;;;4.70;3.30;;;;;;;2.98;100.00;102151.00;2083763;28;20246;-59
2023/03/29 03:58:32;;;;;;;6.00;3.28;;;;;;;2.91;100.00;102153.50;2071807;28;20275;-60
2023/03/29 03:59:32;;;;;;;7.53;3.77;;;;;;;2.86;100.00;102156.47;2076644;28;20250;-61
2023/03/29 04:00:33;;;;;;;5.10;3.13;;;;;;;2.82;100.00;102153.63;2075500;28;20244;-62
2023/03/29 04:01:34;;;;;;;5.83;3.07;;;;;;;2.77;100.00;102153.88;2072504;28;20906;-59
2023/03/29 04:02:34;;;;;;;5.37;3.10;;;;;;;2.81;100.00;102164.94;2080644;28;20259;-61
2023/03/29 04:03:36;;;;;;;5.37;3.20;;;;;;;2.75;100.00;102155.34;2084534;28;20707;-62
2023/03/29 04:04:36;;;;;;;6.63;3.38;;;;;;;2.74;100.00;102156.50;2080981;28;20739;-62
2023/03/29 04:05:41;;;;;;;6.07;3.03;;;;;;;2.67;100.00;102154.31;2084047;28;20586;-66
2023/03/29 04:06:42;;;;;;;4.80;3.35;;;;;;;2.67;100.00;102154.31;2084682;28;20690;-64
2023/03/29 04:07:43;;;;;;;5.60;3.20;;;;;;;2.67;100.00;102159.78;2083760;28;20188;-65
2023/03/29 04:08:44;;;;;;;5.87;3.37;;;;;;;2.70;100.00;102156.38;2087026;28;20185;-66
2023/03/29 04:09:44;;;;;;;5.95;3.63;;;;;;;2.72;100.00;102161.53;2082521;28;20254;-66
2023/03/29 04:10:53;;;;;;;6.10;3.23;;;;;;;2.71;100.00;102173.59;2086845;28;20739;-63
2023/03/29 04:11:54;;;;;;;7.32;3.58;;;;;;;2.71;100.00;102168.94;2086300;28;20665;-78
2023/03/29 04:12:55;;;;;;;5.15;3.15;;;;;;;2.60;100.00;102176.00;2080024;28;20205;-64
2023/03/29 04:13:56;;;;;;;7.60;3.10;;;;;;;2.62;100.00;102170.19;2080828;28;20284;-64
2023/03/29 04:14:56;;;;;;;7.63;3.47;;;;;;;2.69;100.00;102173.97;2080198;28;20272;-63
2023/03/29 04:15:57;;;;;;;5.50;3.03;;;;;;;2.74;100.00;102172.94;2079985;28;20188;-64
2023/03/29 04:16:57;;;;;;;4.47;3.30;;;;;;;2.77;100.00;102175.78;2071756;28;20443;-63
2023/03/29 04:17:59;;;;;;;4.40;3.40;;;;;;;1.95;100.00;102055.00;2081376;28;20192;-63
2023/03/29 04:19:00;;;;;;;6.55;3.30;;;;;;;2.25;100.00;102102.88;2080786;28;20184;-65
2023/03/29 04:20:04;;;;;;;5.43;3.10;;;;;;;2.62;100.00;102157.28;2084869;28;20173;-62
2023/03/29 04:21:05;;;;;;;4.40;2.85;;;;;;;2.75;100.00;102183.53;2078782;28;20268;-62
2023/03/29 04:22:05;;;;;;;4.50;2.87;;;;;;;2.79;100.00;102178.97;2083150;28;20191;-64
2023/03/29 04:23:06;;;;;;;5.17;3.00;;;;;;;2.74;100.00;102209.31;2084168;28;20286;-65
2023/03/29 04:24:06;;;;;;;5.53;3.13;;;;;;;2.61;100.00;102158.44;2079497;28;20231;-63
2023/03/29 04:25:09;;;;;;;4.57;2.80;;;;;;;2.83;100.00;102188.09;2087241;28;20176;-69
2023/03/29 04:26:10;;;;;;;5.70;3.20;;;;;;;2.81;100.00;102182.16;2087155;28;20717;-65
2023/03/29 04:27:11;;;;;;;6.15;3.20;;;;;;;2.81;100.00;102193.13;2084180;28;20188;-65
2023/03/29 04:28:11;;;;;;;7.00;3.30;;;;;;;2.86;100.00;102190.16;2081925;28;20221;-63
2023/03/29 04:29:12;;;;;;;6.77;3.17;;;;;;;2.90;100.00;102215.72;2085507;28;20181;-65
2023/03/29 04:30:13;;;;;;;8.50;3.67;;;;;;;2.94;100.00;102189.25;2082765;28;20180;-66
2023/03/29 04:31:13;;;;;;;5.97;3.10;;;;;;;2.79;100.00;102173.50;2083861;28;20304;-65
2023/03/29 04:32:14;;;;;;;7.10;3.67;;;;;;;2.88;100.00;102189.81;2078710;28;20670;-66
2023/03/29 04:33:14;;;;;;;6.77;3.80;;;;;;;2.94;100.00;102191.97;2084855;28;20181;-63
2023/03/29 04:34:15;;;;;;;7.23;3.50;;;;;;;2.90;100.00;102176.56;2081397;28;20262;-62
2023/03/29 04:35:16;;;;;;;6.20;3.90;;;;;;;2.82;100.00;102166.53;2082132;28;20189;-61
2023/03/29 04:36:17;;;;;;;8.50;3.45;;;;;;;2.60;100.00;102121.25;2083021;28;20205;-62
2023/03/29 04:37:20;;;;;;;6.33;3.20;;;;;;;2.97;100.00;102163.91;2082175;28;20176;-62
2023/03/29 04:38:21;;;;;;;6.43;3.22;;;;;;;3.04;100.00;102177.78;2079421;28;20635;-62
2023/03/29 04:39:30;;;;;;;5.20;3.45;;;;;;;3.13;100.00;102178.47;2077668;28;20742;-62
2023/03/29 04:40:32;;;;;;;5.95;3.15;;;;;;;2.74;100.00;102138.16;2073988;28;20204;-63
2023/03/29 04:41:33;;;;;;;5.65;3.30;;;;;;;3.13;100.00;102183.97;2075790;28;20485;-64
2023/03/29 04:42:37;;;;;;;5.93;3.13;;;;;;;3.11;100.00;102183.50;2076096;28;20225;-62
2023/03/29 04:43:37;;;;;;;5.07;3.40;;;;;;;2.41;100.00;102101.88;2081498;28;20724;-63
2023/03/29 04:44:39;;;;;;;6.27;3.50;;;;;;;2.90;100.00;102191.06;2078449;28;20681;-63
2023/03/29 04:45:39;;;;;;;6.07;3.53;;;;;;;2.90;100.00;102199.28;2077997;28;20424;-63
2023/03/29 04:46:39;;;;;;;5.23;3.40;;;;;;;2.75;100.00;102163.56;2075060;28;20719;-61
2023/03/29 04:47:40;;;;;;;5.70;3.43;;;;;;;2.91;100.00;102214.56;2083581;28;20187;-62
2023/03/29 04:48:41;;;;;;;5.57;3.93;;;;;;;2.73;100.00;102160.38;2078919;28;20196;-61
2023/03/29 04:49:41;;;;;;;6.90;3.63;;;;;;;2.99;100.00;102193.69;2070942;28;20566;-62
2023/03/29 04:50:45;;;;;;;8.00;4.00;;;;;;;2.95;100.00;102212.75;2035053;28;22166;-61
2023/03/29 04:51:46;;;;;;;6.85;3.60;;;;;;;2.95;100.00;102190.03;2058319;28;20188;-61
2023/03/29 04:52:49;;;;;;;9.38;4.53;;;;;;;3.05;100.00;102198.59;2079446;28;20231;-61
2023/03/29 04:53:50;;;;;;;7.38;4.50;;;;;;;3.06;100.00;102200.19;2075780;28;20744;-61
2023/03/29 04:54:50;;;;;;;7.97;3.83;;;;;;;3.09;100.00;102198.69;2076949;28;20648;-61
2023/03/29 04:55:52;;;;;;;5.63;3.23;;;;;;;3.16;100.00;102207.13;2078705;28;20582;-61
2023/03/29 04:56:52;;;;;;;10.10;3.65;;;;;;;3.18;100.00;102202.13;2081071;28;20187;-61